sensor_id;sensor_type;location;lat;lon;timestamp;pressure;altitude;pressure_sealevel;temperature;humidity
64739;BME280;51175;51.186;0.276;2023-02-17T00:00:06;101690.13;;;13.87;70.72
64739;BME280;51175;51.186;0.276;2023-02-17T00:00:37;101682.41;;;13.86;70.67
64739;BME280;51175;51.186;0.276;2023-02-17T00:01:11;101688.50;;;13.86;70.89
64739;BME280;51175;51.186;0.276;2023-02-17T00:01:41;101686.66;;;13.87;70.41
64739;BME280;51175;51.186;0.276;2023-02-17T00:02:12;101687.47;;;13.87;70.75
64739;BME280;51175;51.186;0.276;2023-02-17T00:02:42;101687.47;;;13.87;70.83
64739;BME280;51175;51.186;0.276;2023-02-17T00:03:12;101688.50;;;13.86;70.81
64739;BME280;51175;51.186;0.276;2023-02-17T00:03:43;101689.31;;;13.87;70.79
64739;BME280;51175;51.186;0.276;2023-02-17T00:04:17;101691.97;;;13.87;70.88
64739;BME280;51175;51.186;0.276;2023-02-17T00:04:47;101689.31;;;13.87;70.59
64739;BME280;51175;51.186;0.276;2023-02-17T00:05:17;101686.66;;;13.87;70.64
64739;BME280;51175;51.186;0.276;2023-02-17T00:05:48;101687.47;;;13.87;70.62
64739;BME280;51175;51.186;0.276;2023-02-17T00:06:21;101686.66;;;13.87;70.54
64739;BME280;51175;51.186;0.276;2023-02-17T00:06:52;101691.16;;;13.86;70.50
64739;BME280;51175;51.186;0.276;2023-02-17T00:07:22;101691.97;;;13.87;70.62
64739;BME280;51175;51.186;0.276;2023-02-17T00:07:53;101691.16;;;13.86;70.31
64739;BME280;51175;51.186;0.276;2023-02-17T00:08:24;101689.31;;;13.87;70.62
64739;BME280;51175;51.186;0.276;2023-02-17T00:08:54;101695.69;;;13.86;70.58
64739;BME280;51175;51.186;0.276;2023-02-17T00:09:25;101704.19;;;13.88;70.72
64739;BME280;51175;51.186;0.276;2023-02-17T00:09:56;101693.81;;;13.86;70.37
64739;BME280;51175;51.186;0.276;2023-02-17T00:10:26;101699.13;;;13.86;70.76
64739;BME280;51175;51.186;0.276;2023-02-17T00:10:57;101693.03;;;13.86;70.80
64739;BME280;51175;51.186;0.276;2023-02-17T00:11:28;101695.69;;;13.86;70.80
64739;BME280;51175;51.186;0.276;2023-02-17T00:11:58;101699.13;;;13.86;70.96
64739;BME280;51175;51.186;0.276;2023-02-17T00:12:29;101697.28;;;13.87;70.83
64739;BME280;51175;51.186;0.276;2023-02-17T00:12:59;101693.81;;;13.86;71.05
64739;BME280;51175;51.186;0.276;2023-02-17T00:13:29;101699.94;;;13.87;70.79
64739;BME280;51175;51.186;0.276;2023-02-17T00:14:00;101687.72;;;13.86;70.97
64739;BME280;51175;51.186;0.276;2023-02-17T00:14:30;101693.03;;;13.86;70.93
64739;BME280;51175;51.186;0.276;2023-02-17T00:15:00;101685.06;;;13.86;70.90
64739;BME280;51175;51.186;0.276;2023-02-17T00:15:31;101698.34;;;13.86;70.79
64739;BME280;51175;51.186;0.276;2023-02-17T00:16:09;101697.28;;;13.87;71.10
64739;BME280;51175;51.186;0.276;2023-02-17T00:16:40;101689.56;;;13.85;70.95
64739;BME280;51175;51.186;0.276;2023-02-17T00:17:11;101701.00;;;13.86;70.80
64739;BME280;51175;51.186;0.276;2023-02-17T00:17:41;101693.03;;;13.86;70.93
64739;BME280;51175;51.186;0.276;2023-02-17T00:18:11;101694.88;;;13.85;70.85
64739;BME280;51175;51.186;0.276;2023-02-17T00:18:42;101698.34;;;13.86;71.02
64739;BME280;51175;51.186;0.276;2023-02-17T00:19:12;101694.88;;;13.85;71.02
64739;BME280;51175;51.186;0.276;2023-02-17T00:19:54;101692.22;;;13.85;70.95
64739;BME280;51175;51.186;0.276;2023-02-17T00:20:26;101691.41;;;13.85;70.92
64739;BME280;51175;51.186;0.276;2023-02-17T00:20:57;101694.88;;;13.85;70.83
64739;BME280;51175;51.186;0.276;2023-02-17T00:21:29;101695.69;;;13.86;70.75
64739;BME280;51175;51.186;0.276;2023-02-17T00:22:01;101696.72;;;13.85;71.04
64739;BME280;51175;51.186;0.276;2023-02-17T00:22:31;101695.69;;;13.86;70.73
64739;BME280;51175;51.186;0.276;2023-02-17T00:23:02;101693.81;;;13.86;71.05
64739;BME280;51175;51.186;0.276;2023-02-17T00:23:32;101695.69;;;13.86;70.95
64739;BME280;51175;51.186;0.276;2023-02-17T00:24:02;101693.03;;;13.86;71.03
64739;BME280;51175;51.186;0.276;2023-02-17T00:24:35;101700.19;;;13.85;71.08
64739;BME280;51175;51.186;0.276;2023-02-17T00:25:06;101696.47;;;13.86;70.89
64739;BME280;51175;51.186;0.276;2023-02-17T00:25:37;101694.88;;;13.85;70.68
64739;BME280;51175;51.186;0.276;2023-02-17T00:26:08;101700.75;;;13.87;70.69
64739;BME280;51175;51.186;0.276;2023-02-17T00:26:39;101693.81;;;13.86;70.72
64739;BME280;51175;51.186;0.276;2023-02-17T00:27:09;101700.19;;;13.85;70.57
64739;BME280;51175;51.186;0.276;2023-02-17T00:27:40;101692.22;;;13.85;71.05
64739;BME280;51175;51.186;0.276;2023-02-17T00:28:10;101691.16;;;13.86;70.98
64739;BME280;51175;51.186;0.276;2023-02-17T00:28:40;101697.53;;;13.85;71.02
64739;BME280;51175;51.186;0.276;2023-02-17T00:29:11;101691.41;;;13.85;70.96
64739;BME280;51175;51.186;0.276;2023-02-17T00:29:42;101700.19;;;13.85;70.97
64739;BME280;51175;51.186;0.276;2023-02-17T00:30:12;101694.06;;;13.85;70.83
64739;BME280;51175;51.186;0.276;2023-02-17T00:30:42;101692.22;;;13.85;70.95
64739;BME280;51175;51.186;0.276;2023-02-17T00:31:19;101690.38;;;13.86;70.91
64739;BME280;51175;51.186;0.276;2023-02-17T00:31:51;101688.75;;;13.85;70.87
64739;BME280;51175;51.186;0.276;2023-02-17T00:32:21;101692.22;;;13.85;70.90
64739;BME280;51175;51.186;0.276;2023-02-17T00:32:52;101688.75;;;13.85;71.16
64739;BME280;51175;51.186;0.276;2023-02-17T00:33:22;101680.78;;;13.85;71.01
64739;BME280;51175;51.186;0.276;2023-02-17T00:33:54;101691.16;;;13.86;71.02
64739;BME280;51175;51.186;0.276;2023-02-17T00:34:24;101684.25;;;13.85;71.07
64739;BME280;51175;51.186;0.276;2023-02-17T00:34:57;101681.59;;;13.85;71.25
64739;BME280;51175;51.186;0.276;2023-02-17T00:35:27;101688.75;;;13.85;70.90
64739;BME280;51175;51.186;0.276;2023-02-17T00:35:58;101679.75;;;13.86;70.99
64739;BME280;51175;51.186;0.276;2023-02-17T00:36:28;101683.19;;;13.86;71.29
64739;BME280;51175;51.186;0.276;2023-02-17T00:36:58;101680.53;;;13.86;71.15
64739;BME280;51175;51.186;0.276;2023-02-17T00:37:29;101684.25;;;13.85;71.29
64739;BME280;51175;51.186;0.276;2023-02-17T00:37:59;101685.06;;;13.86;70.99
64739;BME280;51175;51.186;0.276;2023-02-17T00:38:29;101684.25;;;13.85;71.01
64739;BME280;51175;51.186;0.276;2023-02-17T00:39:00;101680.53;;;13.86;71.11
64739;BME280;51175;51.186;0.276;2023-02-17T00:39:30;101692.22;;;13.85;71.06
64739;BME280;51175;51.186;0.276;2023-02-17T00:40:01;101693.03;;;13.86;70.93
64739;BME280;51175;51.186;0.276;2023-02-17T00:40:31;101692.22;;;13.85;71.34
64739;BME280;51175;51.186;0.276;2023-02-17T00:41:01;101693.03;;;13.86;71.13
64739;BME280;51175;51.186;0.276;2023-02-17T00:41:32;101693.03;;;13.86;70.92
64739;BME280;51175;51.186;0.276;2023-02-17T00:42:03;101692.22;;;13.85;70.91
64739;BME280;51175;51.186;0.276;2023-02-17T00:42:33;101681.59;;;13.85;70.94
64739;BME280;51175;51.186;0.276;2023-02-17T00:43:03;101685.06;;;13.86;70.92
64739;BME280;51175;51.186;0.276;2023-02-17T00:43:34;101691.97;;;13.87;71.12
64739;BME280;51175;51.186;0.276;2023-02-17T00:44:04;101680.53;;;13.86;71.20
64739;BME280;51175;51.186;0.276;2023-02-17T00:44:35;101687.72;;;13.86;71.00
64739;BME280;51175;51.186;0.276;2023-02-17T00:45:06;101688.50;;;13.86;71.03
64739;BME280;51175;51.186;0.276;2023-02-17T00:45:36;101694.63;;;13.87;70.86
64739;BME280;51175;51.186;0.276;2023-02-17T00:46:07;101691.97;;;13.87;71.21
64739;BME280;51175;51.186;0.276;2023-02-17T00:46:37;101682.41;;;13.86;71.14
64739;BME280;51175;51.186;0.276;2023-02-17T00:47:07;101693.03;;;13.86;71.14
64739;BME280;51175;51.186;0.276;2023-02-17T00:47:38;101687.72;;;13.86;71.20
64739;BME280;51175;51.186;0.276;2023-02-17T00:48:08;101685.84;;;13.86;71.00
64739;BME280;51175;51.186;0.276;2023-02-17T00:48:40;101691.16;;;13.86;70.98
64739;BME280;51175;51.186;0.276;2023-02-17T00:49:24;101687.72;;;13.86;70.82
64739;BME280;51175;51.186;0.276;2023-02-17T00:49:55;101687.72;;;13.86;71.02
64739;BME280;51175;51.186;0.276;2023-02-17T00:50:25;101677.09;;;13.86;71.15
64739;BME280;51175;51.186;0.276;2023-02-17T00:50:56;101679.75;;;13.86;70.92
64739;BME280;51175;51.186;0.276;2023-02-17T00:51:26;101687.72;;;13.86;71.00
64739;BME280;51175;51.186;0.276;2023-02-17T00:52:00;101688.50;;;13.86;70.83
64739;BME280;51175;51.186;0.276;2023-02-17T00:52:31;101684.00;;;13.87;71.15
64739;BME280;51175;51.186;0.276;2023-02-17T00:53:01;101683.19;;;13.86;71.43
64739;BME280;51175;51.186;0.276;2023-02-17T00:53:31;101679.75;;;13.86;71.34
64739;BME280;51175;51.186;0.276;2023-02-17T00:54:02;101685.06;;;13.86;71.35
64739;BME280;51175;51.186;0.276;2023-02-17T00:54:33;101685.84;;;13.86;71.36
64739;BME280;51175;51.186;0.276;2023-02-17T00:55:03;101687.72;;;13.86;71.33
64739;BME280;51175;51.186;0.276;2023-02-17T00:55:34;101689.31;;;13.87;71.25
64739;BME280;51175;51.186;0.276;2023-02-17T00:56:04;101686.66;;;13.87;71.32
64739;BME280;51175;51.186;0.276;2023-02-17T00:56:35;101685.84;;;13.86;71.36
64739;BME280;51175;51.186;0.276;2023-02-17T00:57:05;101688.50;;;13.86;70.96
64739;BME280;51175;51.186;0.276;2023-02-17T00:57:35;101687.72;;;13.86;71.13
64739;BME280;51175;51.186;0.276;2023-02-17T00:58:06;101691.16;;;13.86;71.17
64739;BME280;51175;51.186;0.276;2023-02-17T00:58:37;101684.25;;;13.85;71.37
64739;BME280;51175;51.186;0.276;2023-02-17T00:59:08;101682.41;;;13.86;71.41
64739;BME280;51175;51.186;0.276;2023-02-17T00:59:39;101685.84;;;13.86;71.42
64739;BME280;51175;51.186;0.276;2023-02-17T01:00:09;101678.94;;;13.85;71.25
64739;BME280;51175;51.186;0.276;2023-02-17T01:00:40;101677.88;;;13.86;71.31
64739;BME280;51175;51.186;0.276;2023-02-17T01:01:11;101677.09;;;13.86;71.45
64739;BME280;51175;51.186;0.276;2023-02-17T01:01:42;101677.88;;;13.86;71.17
64739;BME280;51175;51.186;0.276;2023-02-17T01:02:12;101673.63;;;13.85;71.22
64739;BME280;51175;51.186;0.276;2023-02-17T01:02:42;101679.75;;;13.86;71.54
64739;BME280;51175;51.186;0.276;2023-02-17T01:03:13;101680.53;;;13.86;71.22
64739;BME280;51175;51.186;0.276;2023-02-17T01:03:43;101678.69;;;13.87;71.42
64739;BME280;51175;51.186;0.276;2023-02-17T01:04:13;101675.22;;;13.86;71.45
64739;BME280;51175;51.186;0.276;2023-02-17T01:04:44;101676.28;;;13.85;71.48
64739;BME280;51175;51.186;0.276;2023-02-17T01:05:14;101675.22;;;13.86;71.61
64739;BME280;51175;51.186;0.276;2023-02-17T01:05:46;101677.09;;;13.86;71.66
64739;BME280;51175;51.186;0.276;2023-02-17T01:06:22;101671.78;;;13.86;71.43
64739;BME280;51175;51.186;0.276;2023-02-17T01:06:53;101663.00;;;13.85;71.68
64739;BME280;51175;51.186;0.276;2023-02-17T01:07:23;101669.13;;;13.86;71.53
64739;BME280;51175;51.186;0.276;2023-02-17T01:07:54;101677.09;;;13.86;71.65
64739;BME280;51175;51.186;0.276;2023-02-17T01:08:24;101676.28;;;13.85;71.27
64739;BME280;51175;51.186;0.276;2023-02-17T01:08:55;101675.22;;;13.86;71.71
64739;BME280;51175;51.186;0.276;2023-02-17T01:09:25;101681.59;;;13.85;71.69
64739;BME280;51175;51.186;0.276;2023-02-17T01:09:55;101672.56;;;13.86;71.74
64739;BME280;51175;51.186;0.276;2023-02-17T01:10:26;101676.28;;;13.85;71.67
64739;BME280;51175;51.186;0.276;2023-02-17T01:10:56;101673.38;;;13.87;71.46
64739;BME280;51175;51.186;0.276;2023-02-17T01:11:29;101674.44;;;13.86;71.22
64739;BME280;51175;51.186;0.276;2023-02-17T01:12:00;101676.03;;;13.87;71.66
64739;BME280;51175;51.186;0.276;2023-02-17T01:12:30;101677.09;;;13.86;71.33
64739;BME280;51175;51.186;0.276;2023-02-17T01:13:00;101677.09;;;13.86;71.54
64739;BME280;51175;51.186;0.276;2023-02-17T01:13:31;101672.56;;;13.86;71.31
64739;BME280;51175;51.186;0.276;2023-02-17T01:14:03;101676.28;;;13.85;71.29
64739;BME280;51175;51.186;0.276;2023-02-17T01:14:35;101680.53;;;13.86;71.35
64739;BME280;51175;51.186;0.276;2023-02-17T01:15:06;101672.56;;;13.86;71.37
64739;BME280;51175;51.186;0.276;2023-02-17T01:15:38;101673.63;;;13.85;71.34
64739;BME280;51175;51.186;0.276;2023-02-17T01:16:16;101677.09;;;13.86;71.32
64739;BME280;51175;51.186;0.276;2023-02-17T01:16:47;101675.22;;;13.86;71.35
64739;BME280;51175;51.186;0.276;2023-02-17T01:17:18;101669.91;;;13.86;71.26
64739;BME280;51175;51.186;0.276;2023-02-17T01:17:48;101670.97;;;13.85;71.58
64739;BME280;51175;51.186;0.276;2023-02-17T01:18:21;101677.09;;;13.86;71.26
64739;BME280;51175;51.186;0.276;2023-02-17T01:18:52;101682.41;;;13.86;71.28
64739;BME280;51175;51.186;0.276;2023-02-17T01:19:23;101682.41;;;13.86;71.28
64739;BME280;51175;51.186;0.276;2023-02-17T01:19:53;101678.94;;;13.85;71.29
64739;BME280;51175;51.186;0.276;2023-02-17T01:20:23;101680.53;;;13.86;71.71
64739;BME280;51175;51.186;0.276;2023-02-17T01:20:54;101680.53;;;13.86;71.70
64739;BME280;51175;51.186;0.276;2023-02-17T01:21:26;101685.84;;;13.86;71.51
64739;BME280;51175;51.186;0.276;2023-02-17T01:21:57;101682.16;;;13.87;71.89
64739;BME280;51175;51.186;0.276;2023-02-17T01:22:27;101683.19;;;13.86;71.66
64739;BME280;51175;51.186;0.276;2023-02-17T01:22:57;101682.41;;;13.86;71.61
64739;BME280;51175;51.186;0.276;2023-02-17T01:23:28;101676.03;;;13.87;71.59
64739;BME280;51175;51.186;0.276;2023-02-17T01:24:00;101676.03;;;13.87;71.71
64739;BME280;51175;51.186;0.276;2023-02-17T01:24:31;101678.69;;;13.87;71.68
64739;BME280;51175;51.186;0.276;2023-02-17T01:25:02;101676.84;;;13.87;71.44
64739;BME280;51175;51.186;0.276;2023-02-17T01:25:37;101677.88;;;13.86;71.67
64739;BME280;51175;51.186;0.276;2023-02-17T01:26:13;101677.88;;;13.86;71.36
64739;BME280;51175;51.186;0.276;2023-02-17T01:26:43;101669.13;;;13.86;71.33
64739;BME280;51175;51.186;0.276;2023-02-17T01:27:13;101670.72;;;13.87;71.38
64739;BME280;51175;51.186;0.276;2023-02-17T01:27:44;101669.91;;;13.86;71.79
64739;BME280;51175;51.186;0.276;2023-02-17T01:28:19;101667.25;;;13.86;71.50
64739;BME280;51175;51.186;0.276;2023-02-17T01:28:50;101674.44;;;13.86;71.45
64739;BME280;51175;51.186;0.276;2023-02-17T01:29:21;101670.72;;;13.87;71.51
64739;BME280;51175;51.186;0.276;2023-02-17T01:29:51;101670.72;;;13.87;71.65
64739;BME280;51175;51.186;0.276;2023-02-17T01:30:22;101675.22;;;13.86;71.64
64739;BME280;51175;51.186;0.276;2023-02-17T01:30:52;101665.66;;;13.85;71.66
64739;BME280;51175;51.186;0.276;2023-02-17T01:31:23;101670.72;;;13.87;71.67
64739;BME280;51175;51.186;0.276;2023-02-17T01:31:56;101659.28;;;13.86;71.51
64739;BME280;51175;51.186;0.276;2023-02-17T01:32:26;101661.94;;;13.86;71.85
64739;BME280;51175;51.186;0.276;2023-02-17T01:32:56;101665.41;;;13.87;71.63
64739;BME280;51175;51.186;0.276;2023-02-17T01:33:27;101669.13;;;13.86;71.77
64739;BME280;51175;51.186;0.276;2023-02-17T01:34:00;101665.41;;;13.87;71.75
64739;BME280;51175;51.186;0.276;2023-02-17T01:34:30;101664.59;;;13.86;71.63
64739;BME280;51175;51.186;0.276;2023-02-17T01:35:00;101669.13;;;13.86;71.90
64739;BME280;51175;51.186;0.276;2023-02-17T01:35:33;101663.81;;;13.86;71.79
64739;BME280;51175;51.186;0.276;2023-02-17T01:36:11;101663.00;;;13.85;71.56
64739;BME280;51175;51.186;0.276;2023-02-17T01:36:42;101663.00;;;13.85;71.73
64739;BME280;51175;51.186;0.276;2023-02-17T01:37:12;101668.31;;;13.85;71.44
64739;BME280;51175;51.186;0.276;2023-02-17T01:37:43;101663.81;;;13.86;71.67
64739;BME280;51175;51.186;0.276;2023-02-17T01:38:13;101660.34;;;13.85;71.48
64739;BME280;51175;51.186;0.276;2023-02-17T01:38:44;101656.88;;;13.85;71.81
64739;BME280;51175;51.186;0.276;2023-02-17T01:39:17;101666.47;;;13.86;71.83
64739;BME280;51175;51.186;0.276;2023-02-17T01:39:48;101661.94;;;13.86;72.01
64739;BME280;51175;51.186;0.276;2023-02-17T01:40:18;101665.66;;;13.85;71.71
64739;BME280;51175;51.186;0.276;2023-02-17T01:40:49;101664.59;;;13.86;71.99
64739;BME280;51175;51.186;0.276;2023-02-17T01:41:23;101659.28;;;13.86;71.90
64739;BME280;51175;51.186;0.276;2023-02-17T01:41:57;101669.13;;;13.86;71.99
64739;BME280;51175;51.186;0.276;2023-02-17T01:42:28;101659.28;;;13.86;71.71
64739;BME280;51175;51.186;0.276;2023-02-17T01:42:58;101658.50;;;13.86;72.07
64739;BME280;51175;51.186;0.276;2023-02-17T01:43:28;101659.28;;;13.86;71.62
64739;BME280;51175;51.186;0.276;2023-02-17T01:44:20;101655.84;;;13.86;71.77
64739;BME280;51175;51.186;0.276;2023-02-17T01:46:24;101658.75;;;13.84;71.63
64739;BME280;51175;51.186;0.276;2023-02-17T01:46:55;101661.41;;;13.84;71.96
64739;BME280;51175;51.186;0.276;2023-02-17T01:47:25;101672.56;;;13.86;72.06
64739;BME280;51175;51.186;0.276;2023-02-17T01:47:59;101660.34;;;13.85;71.88
64739;BME280;51175;51.186;0.276;2023-02-17T01:48:36;101664.59;;;13.86;71.89
64739;BME280;51175;51.186;0.276;2023-02-17T01:49:14;101668.31;;;13.85;72.11
64739;BME280;51175;51.186;0.276;2023-02-17T01:49:46;101664.59;;;13.86;72.13
64739;BME280;51175;51.186;0.276;2023-02-17T01:50:19;101655.03;;;13.85;72.15
64739;BME280;51175;51.186;0.276;2023-02-17T01:51:15;101661.16;;;13.86;72.14
64739;BME280;51175;51.186;0.276;2023-02-17T01:52:39;101664.84;;;13.85;71.90
64739;BME280;51175;51.186;0.276;2023-02-17T01:53:10;101665.09;;;13.83;72.06
64739;BME280;51175;51.186;0.276;2023-02-17T01:54:17;101665.09;;;13.83;71.60
64739;BME280;51175;51.186;0.276;2023-02-17T01:54:52;101670.41;;;13.83;71.95
64739;BME280;51175;51.186;0.276;2023-02-17T01:55:24;101665.91;;;13.84;72.00
64739;BME280;51175;51.186;0.276;2023-02-17T01:55:55;101660.03;;;13.82;71.81
64739;BME280;51175;51.186;0.276;2023-02-17T01:56:27;101666.16;;;13.82;72.04
64739;BME280;51175;51.186;0.276;2023-02-17T01:57:00;101668.81;;;13.82;71.99
64739;BME280;51175;51.186;0.276;2023-02-17T01:57:32;101659.25;;;13.81;71.86
64739;BME280;51175;51.186;0.276;2023-02-17T01:58:06;101667.75;;;13.83;71.91
64739;BME280;51175;51.186;0.276;2023-02-17T01:58:39;101665.34;;;13.82;71.99
64739;BME280;51175;51.186;0.276;2023-02-17T01:59:19;101674.13;;;13.82;72.17
64739;BME280;51175;51.186;0.276;2023-02-17T01:59:50;101662.69;;;13.82;72.20
64739;BME280;51175;51.186;0.276;2023-02-17T02:00:22;101661.66;;;13.83;72.26
64739;BME280;51175;51.186;0.276;2023-02-17T02:00:58;101662.44;;;13.83;72.41
64739;BME280;51175;51.186;0.276;2023-02-17T02:01:30;101666.16;;;13.82;72.05
64739;BME280;51175;51.186;0.276;2023-02-17T02:02:03;101654.47;;;13.83;72.07
64739;BME280;51175;51.186;0.276;2023-02-17T02:02:34;101663.25;;;13.84;72.23
64739;BME280;51175;51.186;0.276;2023-02-17T02:03:08;101665.91;;;13.84;72.16
64739;BME280;51175;51.186;0.276;2023-02-17T02:03:39;101664.31;;;13.83;72.26
64739;BME280;51175;51.186;0.276;2023-02-17T02:04:10;101663.25;;;13.84;72.06
64739;BME280;51175;51.186;0.276;2023-02-17T02:04:44;101662.44;;;13.83;71.91
64739;BME280;51175;51.186;0.276;2023-02-17T02:05:17;101657.13;;;13.83;72.06
64739;BME280;51175;51.186;0.276;2023-02-17T02:05:49;101665.09;;;13.83;72.04
64739;BME280;51175;51.186;0.276;2023-02-17T02:06:23;101660.84;;;13.82;72.26
64739;BME280;51175;51.186;0.276;2023-02-17T02:06:54;101667.75;;;13.83;72.05
64739;BME280;51175;51.186;0.276;2023-02-17T02:07:28;101659.78;;;13.83;72.34
64739;BME280;51175;51.186;0.276;2023-02-17T02:07:59;101660.84;;;13.82;72.06
64739;BME280;51175;51.186;0.276;2023-02-17T02:08:36;101659.78;;;13.83;72.21
64739;BME280;51175;51.186;0.276;2023-02-17T02:09:19;101659.00;;;13.83;72.14
64739;BME280;51175;51.186;0.276;2023-02-17T02:09:53;101668.00;;;13.82;72.25
64739;BME280;51175;51.186;0.276;2023-02-17T02:10:23;101660.59;;;13.84;72.38
64739;BME280;51175;51.186;0.276;2023-02-17T02:10:54;101663.25;;;13.84;72.22
64739;BME280;51175;51.186;0.276;2023-02-17T02:11:24;101661.66;;;13.83;72.24
64739;BME280;51175;51.186;0.276;2023-02-17T02:11:54;101662.44;;;13.83;72.24
64739;BME280;51175;51.186;0.276;2023-02-17T02:12:29;101664.56;;;13.81;72.06
64739;BME280;51175;51.186;0.276;2023-02-17T02:13:00;101660.84;;;13.82;71.91
64739;BME280;51175;51.186;0.276;2023-02-17T02:13:30;101660.84;;;13.82;71.89
64739;BME280;51175;51.186;0.276;2023-02-17T02:14:01;101660.84;;;13.82;72.07
64739;BME280;51175;51.186;0.276;2023-02-17T02:14:33;101668.81;;;13.82;72.04
64739;BME280;51175;51.186;0.276;2023-02-17T02:15:06;101659.78;;;13.83;72.24
64739;BME280;51175;51.186;0.276;2023-02-17T02:15:46;101654.47;;;13.83;72.24
64739;BME280;51175;51.186;0.276;2023-02-17T02:17:17;101656.34;;;13.83;71.86
64739;BME280;51175;51.186;0.276;2023-02-17T02:18:19;101657.94;;;13.84;71.93
64739;BME280;51175;51.186;0.276;2023-02-17T02:19:03;101647.31;;;13.84;72.10
64739;BME280;51175;51.186;0.276;2023-02-17T02:22:11;101651.03;;;13.83;72.06
64739;BME280;51175;51.186;0.276;2023-02-17T02:24:25;101650.50;;;13.81;72.08
64739;BME280;51175;51.186;0.276;2023-02-17T02:28:15;101655.50;;;13.77;72.23
64739;BME280;51175;51.186;0.276;2023-02-17T02:31:01;101642.72;;;13.74;72.25
64739;BME280;51175;51.186;0.276;2023-02-17T02:31:47;101645.38;;;13.74;72.31
64739;BME280;51175;51.186;0.276;2023-02-17T02:34:05;101649.09;;;13.73;72.50
64739;BME280;51175;51.186;0.276;2023-02-17T02:34:44;101645.63;;;13.72;72.22
64739;BME280;51175;51.186;0.276;2023-02-17T02:35:30;101644.59;;;13.73;72.47
64739;BME280;51175;51.186;0.276;2023-02-17T02:36:05;101638.47;;;13.73;72.62
64739;BME280;51175;51.186;0.276;2023-02-17T02:36:47;101635.00;;;13.72;72.32
64739;BME280;51175;51.186;0.276;2023-02-17T02:37:25;101639.28;;;13.73;72.42
64739;BME280;51175;51.186;0.276;2023-02-17T02:38:01;101639.53;;;13.72;72.54
64739;BME280;51175;51.186;0.276;2023-02-17T02:38:43;101636.63;;;13.73;72.91
64739;BME280;51175;51.186;0.276;2023-02-17T02:39:18;101641.13;;;13.73;72.47
64739;BME280;51175;51.186;0.276;2023-02-17T02:39:51;101630.25;;;13.74;72.66
64739;BME280;51175;51.186;0.276;2023-02-17T02:40:34;101643.53;;;13.74;72.60
64739;BME280;51175;51.186;0.276;2023-02-17T02:41:16;101639.03;;;13.75;72.46
64739;BME280;51175;51.186;0.276;2023-02-17T02:41:53;101645.13;;;13.75;72.72
64739;BME280;51175;51.186;0.276;2023-02-17T02:42:26;101644.34;;;13.75;72.70
64739;BME280;51175;51.186;0.276;2023-02-17T02:43:00;101642.47;;;13.75;72.66
64739;BME280;51175;51.186;0.276;2023-02-17T02:43:31;101644.09;;;13.76;72.79
64739;BME280;51175;51.186;0.276;2023-02-17T02:44:04;101648.59;;;13.76;72.75
64739;BME280;51175;51.186;0.276;2023-02-17T02:44:35;101643.28;;;13.76;72.71
64739;BME280;51175;51.186;0.276;2023-02-17T02:45:08;101645.94;;;13.76;72.87
64739;BME280;51175;51.186;0.276;2023-02-17T02:45:39;101644.09;;;13.76;72.72
64739;BME280;51175;51.186;0.276;2023-02-17T02:46:10;101642.22;;;13.77;72.68
64739;BME280;51175;51.186;0.276;2023-02-17T02:46:40;101642.22;;;13.77;72.73
64739;BME280;51175;51.186;0.276;2023-02-17T02:48:15;101644.88;;;13.77;72.44
64739;BME280;51175;51.186;0.276;2023-02-17T02:48:45;101644.09;;;13.76;72.62
64739;BME280;51175;51.186;0.276;2023-02-17T02:49:16;101649.41;;;13.76;72.62
64739;BME280;51175;51.186;0.276;2023-02-17T02:49:46;101644.88;;;13.77;72.45
64739;BME280;51175;51.186;0.276;2023-02-17T02:50:45;101636.91;;;13.77;72.60
64739;BME280;51175;51.186;0.276;2023-02-17T02:51:33;101646.50;;;13.78;72.37
64739;BME280;51175;51.186;0.276;2023-02-17T02:52:22;101643.84;;;13.78;72.43
64739;BME280;51175;51.186;0.276;2023-02-17T02:57:02;101641.44;;;13.76;72.42
64739;BME280;51175;51.186;0.276;2023-02-17T02:59:27;101649.41;;;13.76;72.60
64739;BME280;51175;51.186;0.276;2023-02-17T03:00:57;101644.88;;;13.77;72.66
64739;BME280;51175;51.186;0.276;2023-02-17T03:02:11;101643.28;;;13.76;72.61
64739;BME280;51175;51.186;0.276;2023-02-17T03:03:02;101643.28;;;13.76;72.62
64739;BME280;51175;51.186;0.276;2023-02-17T03:04:34;101645.94;;;13.76;72.79
64739;BME280;51175;51.186;0.276;2023-02-17T03:05:55;101640.63;;;13.76;72.93
64739;BME280;51175;51.186;0.276;2023-02-17T03:06:37;101638.78;;;13.76;72.79
64739;BME280;51175;51.186;0.276;2023-02-17T03:07:13;101640.63;;;13.76;73.00
64739;BME280;51175;51.186;0.276;2023-02-17T03:08:00;101639.03;;;13.75;72.77
64739;BME280;51175;51.186;0.276;2023-02-17T03:08:38;101635.31;;;13.76;72.76
64739;BME280;51175;51.186;0.276;2023-02-17T03:09:21;101630.00;;;13.76;72.69
64739;BME280;51175;51.186;0.276;2023-02-17T03:09:54;101628.16;;;13.76;72.63
64739;BME280;51175;51.186;0.276;2023-02-17T03:10:25;101628.16;;;13.76;72.76
64739;BME280;51175;51.186;0.276;2023-02-17T03:10:56;101623.09;;;13.75;72.80
64739;BME280;51175;51.186;0.276;2023-02-17T03:11:26;101623.88;;;13.75;72.74
64739;BME280;51175;51.186;0.276;2023-02-17T03:12:02;101623.09;;;13.75;72.75
64739;BME280;51175;51.186;0.276;2023-02-17T03:12:36;101634.50;;;13.75;72.87
64739;BME280;51175;51.186;0.276;2023-02-17T03:13:07;101630.00;;;13.76;73.12
64739;BME280;51175;51.186;0.276;2023-02-17T03:13:37;101636.91;;;13.77;72.89
64739;BME280;51175;51.186;0.276;2023-02-17T03:14:12;101641.44;;;13.76;73.14
64739;BME280;51175;51.186;0.276;2023-02-17T03:14:43;101632.41;;;13.77;72.92
64739;BME280;51175;51.186;0.276;2023-02-17T03:15:22;101638.53;;;13.78;73.20
64739;BME280;51175;51.186;0.276;2023-02-17T03:15:55;101635.06;;;13.77;72.84
64739;BME280;51175;51.186;0.276;2023-02-17T03:16:26;101629.75;;;13.77;72.87